sensor_id;sensor_type;location;lat;lon;timestamp;pressure;altitude;pressure_sealevel;temperature;humidity
21863;BME280;11096;51.338;12.524;2023-04-21T00:01:48;100281.78;;;7.46;100.00
21863;BME280;11096;51.338;12.524;2023-04-21T00:04:14;100285.38;;;7.43;100.00
21863;BME280;11096;51.338;12.524;2023-04-21T00:06:39;100279.19;;;7.46;100.00
21863;BME280;11096;51.338;12.524;2023-04-21T00:09:07;100281.84;;;7.44;100.00
21863;BME280;11096;51.338;12.524;2023-04-21T00:11:32;100280.44;;;7.39;100.00
21863;BME280;11096;51.338;12.524;2023-04-21T00:13:57;100281.34;;;7.38;100.00
21863;BME280;11096;51.338;12.524;2023-04-21T00:16:23;100276.00;;;7.41;100.00
21863;BME280;11096;51.338;12.524;2023-04-21T00:18:48;100278.50;;;7.42;100.00
21863;BME280;11096;51.338;12.524;2023-04-21T00:21:14;100279.59;;;7.38;100.00
21863;BME280;11096;51.338;12.524;2023-04-21T00:23:40;100282.94;;;7.40;100.00
21863;BME280;11096;51.338;12.524;2023-04-21T00:26:06;100271.75;;;7.40;100.00
21863;BME280;11096;51.338;12.524;2023-04-21T00:28:31;100271.75;;;7.40;100.00
21863;BME280;11096;51.338;12.524;2023-04-21T00:30:56;100275.69;;;7.31;100.00
21863;BME280;11096;51.338;12.524;2023-04-21T00:33:22;100272.25;;;7.30;100.00
21863;BME280;11096;51.338;12.524;2023-04-21T00:35:47;100266.59;;;7.24;100.00
21863;BME280;11096;51.338;12.524;2023-04-21T00:38:13;100272.75;;;7.21;100.00
21863;BME280;11096;51.338;12.524;2023-04-21T00:40:38;100262.41;;;7.21;100.00
21863;BME280;11096;51.338;12.524;2023-04-21T00:43:06;100261.56;;;7.21;100.00
21863;BME280;11096;51.338;12.524;2023-04-21T00:45:32;100263.25;;;7.22;100.00
21863;BME280;11096;51.338;12.524;2023-04-21T00:47:57;100264.00;;;7.24;100.00
21863;BME280;11096;51.338;12.524;2023-04-21T00:50:23;100264.91;;;7.23;100.00
21863;BME280;11096;51.338;12.524;2023-04-21T00:52:49;100264.06;;;7.22;100.00
21863;BME280;11096;51.338;12.524;2023-04-21T00:55:14;100259.72;;;7.23;100.00
21863;BME280;11096;51.338;12.524;2023-04-21T00:57:40;100260.66;;;7.22;100.00
21863;BME280;11096;51.338;12.524;2023-04-21T01:00:06;100248.31;;;7.27;100.00
21863;BME280;11096;51.338;12.524;2023-04-21T01:02:37;100244.72;;;7.29;100.00
21863;BME280;11096;51.338;12.524;2023-04-21T01:05:07;100242.97;;;7.30;100.00
21863;BME280;11096;51.338;12.524;2023-04-21T01:07:33;100238.72;;;7.29;100.00
21863;BME280;11096;51.338;12.524;2023-04-21T01:10:00;100241.16;;;7.32;100.00
21863;BME280;11096;51.338;12.524;2023-04-21T01:12:25;100237.88;;;7.28;100.00
21863;BME280;11096;51.338;12.524;2023-04-21T01:14:51;100235.03;;;7.33;100.00
21863;BME280;11096;51.338;12.524;2023-04-21T01:17:16;100238.56;;;7.32;100.00
21863;BME280;11096;51.338;12.524;2023-04-21T01:19:43;100229.88;;;7.33;100.00
21863;BME280;11096;51.338;12.524;2023-04-21T01:22:10;100240.22;;;7.33;100.00
21863;BME280;11096;51.338;12.524;2023-04-21T01:24:41;100240.06;;;7.36;100.00
21863;BME280;11096;51.338;12.524;2023-04-21T01:27:25;100237.50;;;7.36;100.00
21863;BME280;11096;51.338;12.524;2023-04-21T01:29:51;100241.66;;;7.39;100.00
21863;BME280;11096;51.338;12.524;2023-04-21T01:32:20;100242.56;;;7.38;100.00
21863;BME280;11096;51.338;12.524;2023-04-21T01:34:46;100235.56;;;7.40;100.00
21863;BME280;11096;51.338;12.524;2023-04-21T01:37:14;100238.84;;;7.43;100.00
21863;BME280;11096;51.338;12.524;2023-04-21T01:39:41;100237.72;;;7.47;100.00
21863;BME280;11096;51.338;12.524;2023-04-21T01:42:08;100230.78;;;7.48;100.00
21863;BME280;11096;51.338;12.524;2023-04-21T01:44:34;100237.72;;;7.47;100.00
21863;BME280;11096;51.338;12.524;2023-04-21T01:47:00;100237.91;;;7.44;100.00
21863;BME280;11096;51.338;12.524;2023-04-21T01:49:25;100232.22;;;7.38;100.00
21863;BME280;11096;51.338;12.524;2023-04-21T01:51:51;100232.03;;;7.41;100.00
21863;BME280;11096;51.338;12.524;2023-04-21T01:54:16;100237.16;;;7.42;100.00
21863;BME280;11096;51.338;12.524;2023-04-21T01:56:42;100228.63;;;7.40;100.00
21863;BME280;11096;51.338;12.524;2023-04-21T01:59:07;100233.97;;;7.37;100.00
21863;BME280;11096;51.338;12.524;2023-04-21T02:01:32;100233.03;;;7.38;100.00
21863;BME280;11096;51.338;12.524;2023-04-21T02:04:00;100232.22;;;7.38;100.00
21863;BME280;11096;51.338;12.524;2023-04-21T02:06:25;100224.56;;;7.36;100.00
21863;BME280;11096;51.338;12.524;2023-04-21T02:08:50;100232.03;;;7.41;100.00
21863;BME280;11096;51.338;12.524;2023-04-21T02:11:16;100226.97;;;7.39;100.00
21863;BME280;11096;51.338;12.524;2023-04-21T02:13:41;100221.88;;;7.38;100.00
21863;BME280;11096;51.338;12.524;2023-04-21T02:16:07;100223.47;;;7.40;100.00
21863;BME280;11096;51.338;12.524;2023-04-21T02:18:32;100234.03;;;7.36;100.00
21863;BME280;11096;51.338;12.524;2023-04-21T02:20:58;100218.47;;;7.37;100.00
21863;BME280;11096;51.338;12.524;2023-04-21T02:23:24;100224.56;;;7.36;100.00
21863;BME280;11096;51.338;12.524;2023-04-21T02:25:49;100227.16;;;7.36;100.00
21863;BME280;11096;51.338;12.524;2023-04-21T02:28:14;100222.88;;;7.35;100.00
21863;BME280;11096;51.338;12.524;2023-04-21T02:30:40;100229.88;;;7.33;100.00
21863;BME280;11096;51.338;12.524;2023-04-21T02:33:05;100228.41;;;7.29;100.00
21863;BME280;11096;51.338;12.524;2023-04-21T02:35:31;100227.72;;;7.25;100.00
21863;BME280;11096;51.338;12.524;2023-04-21T02:37:58;100222.53;;;7.25;100.00
21863;BME280;11096;51.338;12.524;2023-04-21T02:40:23;100227.94;;;7.21;100.00
21863;BME280;11096;51.338;12.524;2023-04-21T02:42:48;100227.88;;;7.22;100.00
21863;BME280;11096;51.338;12.524;2023-04-21T02:45:14;100223.63;;;7.21;100.00
21863;BME280;11096;51.338;12.524;2023-04-21T02:47:39;100229.63;;;7.22;100.00
21863;BME280;11096;51.338;12.524;2023-04-21T02:50:05;100224.53;;;7.20;100.00
21863;BME280;11096;51.338;12.524;2023-04-21T02:52:35;100219.53;;;7.17;100.00
21863;BME280;11096;51.338;12.524;2023-04-21T02:55:01;100225.88;;;7.12;100.00
21863;BME280;11096;51.338;12.524;2023-04-21T02:57:27;100227.72;;;7.09;100.00
21863;BME280;11096;51.338;12.524;2023-04-21T02:59:52;100223.59;;;7.05;100.00
21863;BME280;11096;51.338;12.524;2023-04-21T03:02:18;100222.03;;;7.03;100.00
21863;BME280;11096;51.338;12.524;2023-04-21T03:04:43;100223.94;;;6.99;100.00
21863;BME280;11096;51.338;12.524;2023-04-21T03:07:12;100222.19;;;7.00;100.00
21863;BME280;11096;51.338;12.524;2023-04-21T03:09:39;100223.19;;;6.97;100.00
21863;BME280;11096;51.338;12.524;2023-04-21T03:12:04;100228.53;;;6.94;100.00
21863;BME280;11096;51.338;12.524;2023-04-21T03:14:30;100225.19;;;6.92;100.00
21863;BME280;11096;51.338;12.524;2023-04-21T03:16:55;100224.25;;;6.93;100.00
21863;BME280;11096;51.338;12.524;2023-04-21T03:19:21;100221.16;;;6.86;100.00
21863;BME280;11096;51.338;12.524;2023-04-21T03:21:46;100218.66;;;6.85;100.00
21863;BME280;11096;51.338;12.524;2023-04-21T03:24:11;100218.50;;;6.88;100.00
21863;BME280;11096;51.338;12.524;2023-04-21T03:26:40;100221.06;;;6.88;100.00
21863;BME280;11096;51.338;12.524;2023-04-21T03:29:06;100217.06;;;6.82;100.00
21863;BME280;11096;51.338;12.524;2023-04-21T03:31:31;100212.16;;;6.78;100.00
21863;BME280;11096;51.338;12.524;2023-04-21T03:33:57;100213.03;;;6.77;100.00
21863;BME280;11096;51.338;12.524;2023-04-21T03:36:22;100218.38;;;6.74;100.00
21863;BME280;11096;51.338;12.524;2023-04-21T03:38:48;100217.94;;;6.65;100.00
21863;BME280;11096;51.338;12.524;2023-04-21T03:41:13;100218.84;;;6.64;100.00
21863;BME280;11096;51.338;12.524;2023-04-21T03:43:39;100217.25;;;6.62;100.00
21863;BME280;11096;51.338;12.524;2023-04-21T03:46:04;100216.41;;;6.61;100.00
21863;BME280;11096;51.338;12.524;2023-04-21T03:48:29;100216.41;;;6.61;100.00
21863;BME280;11096;51.338;12.524;2023-04-21T03:50:56;100224.09;;;6.63;100.00
21863;BME280;11096;51.338;12.524;2023-04-21T03:53:21;100221.41;;;6.64;100.00
21863;BME280;11096;51.338;12.524;2023-04-21T03:55:49;100224.88;;;6.65;100.00
21863;BME280;11096;51.338;12.524;2023-04-21T03:58:15;100227.50;;;6.63;100.00
21863;BME280;11096;51.338;12.524;2023-04-21T04:00:41;100221.69;;;6.60;100.00
21863;BME280;11096;51.338;12.524;2023-04-21T04:03:06;100221.75;;;6.58;100.00
21863;BME280;11096;51.338;12.524;2023-04-21T04:05:32;100226.31;;;6.53;100.00
21863;BME280;11096;51.338;12.524;2023-04-21T04:07:59;100229.81;;;6.52;100.00
21863;BME280;11096;51.338;12.524;2023-04-21T04:10:24;100229.81;;;6.52;100.00
21863;BME280;11096;51.338;12.524;2023-04-21T04:12:50;100222.16;;;6.51;100.00
21863;BME280;11096;51.338;12.524;2023-04-21T04:15:15;100233.13;;;6.54;100.00
21863;BME280;11096;51.338;12.524;2023-04-21T04:17:40;100232.25;;;6.55;100.00
21863;BME280;11096;51.338;12.524;2023-04-21T04:20:06;100229.56;;;6.57;100.00
21863;BME280;11096;51.338;12.524;2023-04-21T04:22:32;100230.25;;;6.60;100.00
21863;BME280;11096;51.338;12.524;2023-04-21T04:24:58;100230.09;;;6.63;100.00
21863;BME280;11096;51.338;12.524;2023-04-21T04:27:26;100238.66;;;6.64;100.00
21863;BME280;11096;51.338;12.524;2023-04-21T04:29:52;100235.25;;;6.63;100.00
21863;BME280;11096;51.338;12.524;2023-04-21T04:32:18;100238.44;;;6.69;100.00
21863;BME280;11096;51.338;12.524;2023-04-21T04:34:43;100236.78;;;6.68;100.00
21863;BME280;11096;51.338;12.524;2023-04-21T04:37:09;100236.44;;;6.74;100.00
21863;BME280;11096;51.338;12.524;2023-04-21T04:39:35;100243.06;;;6.79;100.00
21863;BME280;11096;51.338;12.524;2023-04-21T04:42:01;100239.16;;;6.88;100.00
21863;BME280;11096;51.338;12.524;2023-04-21T04:44:28;100235.19;;;6.98;100.00
21863;BME280;11096;51.338;12.524;2023-04-21T04:46:54;100236.47;;;7.07;100.00
21863;BME280;11096;51.338;12.524;2023-04-21T04:49:19;100230.06;;;7.14;100.00
21863;BME280;11096;51.338;12.524;2023-04-21T04:51:45;100230.53;;;7.21;100.00
21863;BME280;11096;51.338;12.524;2023-04-21T04:54:10;100233.22;;;7.35;100.00
21863;BME280;11096;51.338;12.524;2023-04-21T04:56:36;100234.38;;;7.45;100.00
21863;BME280;11096;51.338;12.524;2023-04-21T04:59:01;100235.72;;;7.52;100.00
21863;BME280;11096;51.338;12.524;2023-04-21T05:01:27;100245.56;;;7.62;100.00
21863;BME280;11096;51.338;12.524;2023-04-21T05:03:55;100241.31;;;7.77;100.00
21863;BME280;11096;51.338;12.524;2023-04-21T05:06:21;100246.78;;;7.86;100.00
21863;BME280;11096;51.338;12.524;2023-04-21T05:08:46;100246.03;;;8.00;100.00
21863;BME280;11096;51.338;12.524;2023-04-21T05:11:12;100246.34;;;8.10;100.00
21863;BME280;11096;51.338;12.524;2023-04-21T05:13:37;100245.03;;;8.17;100.00
21863;BME280;11096;51.338;12.524;2023-04-21T05:16:03;100240.78;;;8.32;100.00
21863;BME280;11096;51.338;12.524;2023-04-21T05:18:28;100253.34;;;8.38;100.00
21863;BME280;11096;51.338;12.524;2023-04-21T05:20:54;100246.38;;;8.54;100.00
21863;BME280;11096;51.338;12.524;2023-04-21T05:23:20;100248.00;;;8.71;100.00
21863;BME280;11096;51.338;12.524;2023-04-21T05:25:46;100253.44;;;8.81;100.00
21863;BME280;11096;51.338;12.524;2023-04-21T05:28:11;100246.94;;;8.88;100.00
21863;BME280;11096;51.338;12.524;2023-04-21T05:30:37;100242.59;;;9.03;100.00
21863;BME280;11096;51.338;12.524;2023-04-21T05:33:02;100249.53;;;9.17;100.00
21863;BME280;11096;51.338;12.524;2023-04-21T05:35:32;100248.78;;;9.43;100.00
21863;BME280;11096;51.338;12.524;2023-04-21T05:37:57;100243.00;;;9.53;100.00
21863;BME280;11096;51.338;12.524;2023-04-21T05:40:23;100240.47;;;9.65;100.00
21863;BME280;11096;51.338;12.524;2023-04-21T05:42:48;100250.94;;;9.91;100.00
21863;BME280;11096;51.338;12.524;2023-04-21T05:45:13;100253.69;;;10.02;100.00
21863;BME280;11096;51.338;12.524;2023-04-21T05:47:39;100248.75;;;10.25;100.00
21863;BME280;11096;51.338;12.524;2023-04-21T05:50:05;100252.03;;;10.41;100.00
21863;BME280;11096;51.338;12.524;2023-04-21T05:52:31;100247.47;;;10.58;100.00
21863;BME280;11096;51.338;12.524;2023-04-21T05:54:57;100250.78;;;10.72;100.00
21863;BME280;11096;51.338;12.524;2023-04-21T05:57:23;100252.88;;;11.06;100.00
21863;BME280;11096;51.338;12.524;2023-04-21T05:59:49;100244.38;;;11.41;100.00
21863;BME280;11096;51.338;12.524;2023-04-21T06:02:14;100245.38;;;11.51;98.39
21863;BME280;11096;51.338;12.524;2023-04-21T06:04:40;100238.16;;;11.91;95.46
21863;BME280;11096;51.338;12.524;2023-04-21T06:07:07;100242.81;;;12.34;91.87
21863;BME280;11096;51.338;12.524;2023-04-21T06:09:33;100242.84;;;12.45;88.49
21863;BME280;11096;51.338;12.524;2023-04-21T06:11:59;100240.50;;;12.99;85.32
21863;BME280;11096;51.338;12.524;2023-04-21T06:14:25;100239.22;;;14.03;81.02
21863;BME280;11096;51.338;12.524;2023-04-21T06:16:51;100237.19;;;15.91;73.08
21863;BME280;11096;51.338;12.524;2023-04-21T06:19:16;100226.63;;;18.05;65.24
21863;BME280;11096;51.338;12.524;2023-04-21T06:21:42;100219.56;;;20.10;57.20
21863;BME280;11096;51.338;12.524;2023-04-21T06:24:07;100231.34;;;20.88;54.01
21863;BME280;11096;51.338;12.524;2023-04-21T06:26:33;100221.22;;;22.08;50.13
21863;BME280;11096;51.338;12.524;2023-04-21T06:28:58;100217.66;;;23.49;45.71
21863;BME280;11096;51.338;12.524;2023-04-21T06:31:24;100210.44;;;24.36;42.97
21863;BME280;11096;51.338;12.524;2023-04-21T06:33:49;100206.97;;;24.63;41.03
21863;BME280;11096;51.338;12.524;2023-04-21T06:36:15;100206.78;;;26.21;39.02
21863;BME280;11096;51.338;12.524;2023-04-21T06:38:40;100198.31;;;26.71;37.28
21863;BME280;11096;51.338;12.524;2023-04-21T06:41:08;100195.03;;;25.36;36.81
21863;BME280;11096;51.338;12.524;2023-04-21T06:43:34;100196.53;;;26.18;36.55
21863;BME280;11096;51.338;12.524;2023-04-21T06:45:59;100198.09;;;27.56;34.67
21863;BME280;11096;51.338;12.524;2023-04-21T06:48:25;100193.66;;;28.99;33.53
21863;BME280;11096;51.338;12.524;2023-04-21T06:50:51;100192.28;;;28.41;32.97
21863;BME280;11096;51.338;12.524;2023-04-21T06:53:16;100194.00;;;28.54;32.13
21863;BME280;11096;51.338;12.524;2023-04-21T06:55:46;100189.94;;;30.37;31.13
21863;BME280;11096;51.338;12.524;2023-04-21T06:58:11;100185.91;;;28.60;31.31
21863;BME280;11096;51.338;12.524;2023-04-21T07:00:37;100196.13;;;29.00;31.37
21863;BME280;11096;51.338;12.524;2023-04-21T07:03:02;100190.25;;;29.94;30.24
21863;BME280;11096;51.338;12.524;2023-04-21T07:05:28;100191.47;;;28.40;31.61
21863;BME280;11096;51.338;12.524;2023-04-21T07:07:53;100176.72;;;29.05;30.78
21863;BME280;11096;51.338;12.524;2023-04-21T07:10:24;100179.91;;;30.33;29.18
21863;BME280;11096;51.338;12.524;2023-04-21T07:12:49;100181.31;;;30.76;28.73
21863;BME280;11096;51.338;12.524;2023-04-21T07:15:15;100174.00;;;31.74;28.09
21863;BME280;11096;51.338;12.524;2023-04-21T07:17:41;100175.75;;;33.62;26.48
21863;BME280;11096;51.338;12.524;2023-04-21T07:20:07;100172.91;;;32.48;25.97
21863;BME280;11096;51.338;12.524;2023-04-21T07:22:32;100169.56;;;30.77;27.58
21863;BME280;11096;51.338;12.524;2023-04-21T07:25:00;100166.97;;;32.90;26.36
21863;BME280;11096;51.338;12.524;2023-04-21T07:27:26;100173.41;;;34.08;25.50
21863;BME280;11096;51.338;12.524;2023-04-21T07:29:51;100164.59;;;34.91;23.73
21863;BME280;11096;51.338;12.524;2023-04-21T07:32:17;100160.00;;;32.94;24.70
21863;BME280;11096;51.338;12.524;2023-04-21T07:34:42;100166.78;;;33.88;24.30
21863;BME280;11096;51.338;12.524;2023-04-21T07:37:11;100161.13;;;33.85;24.72
21863;BME280;11096;51.338;12.524;2023-04-21T07:39:36;100173.06;;;34.47;24.71
21863;BME280;11096;51.338;12.524;2023-04-21T07:42:01;100171.53;;;34.13;23.45
21863;BME280;11096;51.338;12.524;2023-04-21T07:44:27;100155.69;;;36.23;22.91
21863;BME280;11096;51.338;12.524;2023-04-21T07:46:53;100152.72;;;37.24;21.50
21863;BME280;11096;51.338;12.524;2023-04-21T07:49:19;100156.50;;;37.23;21.37
21863;BME280;11096;51.338;12.524;2023-04-21T07:51:44;100155.97;;;37.21;21.20
21863;BME280;11096;51.338;12.524;2023-04-21T07:54:09;100153.22;;;37.90;21.28
21863;BME280;11096;51.338;12.524;2023-04-21T07:56:35;100158.28;;;37.72;20.34
21863;BME280;11096;51.338;12.524;2023-04-21T07:59:00;100155.91;;;34.15;23.17
21863;BME280;11096;51.338;12.524;2023-04-21T08:01:26;100150.16;;;36.99;21.71
21863;BME280;11096;51.338;12.524;2023-04-21T08:03:51;100145.81;;;37.71;20.52
21863;BME280;11096;51.338;12.524;2023-04-21T08:06:17;100139.56;;;38.86;19.85
21863;BME280;11096;51.338;12.524;2023-04-21T08:08:42;100143.88;;;40.68;18.76
21863;BME280;11096;51.338;12.524;2023-04-21T08:11:08;100148.09;;;38.98;19.41
21863;BME280;11096;51.338;12.524;2023-04-21T08:13:33;100139.31;;;40.27;19.27
21863;BME280;11096;51.338;12.524;2023-04-21T08:16:00;100134.16;;;42.06;17.65
21863;BME280;11096;51.338;12.524;2023-04-21T08:18:25;100138.69;;;42.28;17.98
21863;BME280;11096;51.338;12.524;2023-04-21T08:20:50;100131.88;;;40.55;18.63
21863;BME280;11096;51.338;12.524;2023-04-21T08:23:16;100131.56;;;40.71;17.98
21863;BME280;11096;51.338;12.524;2023-04-21T08:25:42;100134.34;;;41.16;17.92
21863;BME280;11096;51.338;12.524;2023-04-21T08:28:07;100136.63;;;41.45;17.44
21863;BME280;11096;51.338;12.524;2023-04-21T08:30:33;100131.47;;;42.23;17.36
21863;BME280;11096;51.338;12.524;2023-04-21T08:32:58;100130.41;;;41.53;17.12
21863;BME280;11096;51.338;12.524;2023-04-21T08:35:24;100132.41;;;40.71;17.67
21863;BME280;11096;51.338;12.524;2023-04-21T08:37:49;100129.00;;;41.65;17.42
21863;BME280;11096;51.338;12.524;2023-04-21T08:40:15;100126.13;;;41.61;16.41
21863;BME280;11096;51.338;12.524;2023-04-21T08:42:41;100122.44;;;41.66;16.64
21863;BME280;11096;51.338;12.524;2023-04-21T08:45:07;100124.50;;;39.13;18.54
21863;BME280;11096;51.338;12.524;2023-04-21T08:47:34;100125.97;;;40.90;17.50
21863;BME280;11096;51.338;12.524;2023-04-21T08:50:02;100112.97;;;39.67;18.11
21863;BME280;11096;51.338;12.524;2023-04-21T08:52:27;100118.75;;;39.80;17.92
21863;BME280;11096;51.338;12.524;2023-04-21T08:54:54;100127.56;;;37.53;20.10
21863;BME280;11096;51.338;12.524;2023-04-21T08:57:19;100123.72;;;38.55;19.07
21863;BME280;11096;51.338;12.524;2023-04-21T08:59:45;100115.00;;;36.93;19.67
21863;BME280;11096;51.338;12.524;2023-04-21T09:02:19;100119.69;;;36.18;19.99
21863;BME280;11096;51.338;12.524;2023-04-21T09:04:47;100118.16;;;34.78;20.93
21863;BME280;11096;51.338;12.524;2023-04-21T09:07:35;100110.94;;;33.46;21.82
21863;BME280;11096;51.338;12.524;2023-04-21T09:10:02;100107.84;;;36.14;21.08
21863;BME280;11096;51.338;12.524;2023-04-21T09:12:28;100112.53;;;35.26;20.17
21863;BME280;11096;51.338;12.524;2023-04-21T09:14:54;100108.97;;;35.92;20.20
21863;BME280;11096;51.338;12.524;2023-04-21T09:17:27;100115.38;;;36.22;20.04
21863;BME280;11096;51.338;12.524;2023-04-21T09:19:56;100117.16;;;36.42;20.42
21863;BME280;11096;51.338;12.524;2023-04-21T09:22:25;100110.78;;;36.17;20.98
21863;BME280;11096;51.338;12.524;2023-04-21T09:24:57;100117.78;;;38.53;18.55
21863;BME280;11096;51.338;12.524;2023-04-21T09:27:24;100114.09;;;38.20;18.77
21863;BME280;11096;51.338;12.524;2023-04-21T09:29:49;100107.94;;;35.21;20.70
21863;BME280;11096;51.338;12.524;2023-04-21T09:32:18;100098.94;;;36.68;20.40
21863;BME280;11096;51.338;12.524;2023-04-21T09:34:44;100099.66;;;39.19;18.88
21863;BME280;11096;51.338;12.524;2023-04-21T09:37:11;100100.78;;;37.99;18.39
21863;BME280;11096;51.338;12.524;2023-04-21T09:39:36;100093.31;;;34.81;20.28
21863;BME280;11096;51.338;12.524;2023-04-21T09:42:02;100101.59;;;36.13;19.68
21863;BME280;11096;51.338;12.524;2023-04-21T09:44:28;100103.06;;;36.94;19.73
21863;BME280;11096;51.338;12.524;2023-04-21T09:47:01;100084.47;;;36.28;19.44
21863;BME280;11096;51.338;12.524;2023-04-21T09:49:34;100080.34;;;35.65;19.63
21863;BME280;11096;51.338;12.524;2023-04-21T09:52:01;100084.72;;;35.10;20.34
21863;BME280;11096;51.338;12.524;2023-04-21T09:54:31;100082.75;;;34.59;20.38
21863;BME280;11096;51.338;12.524;2023-04-21T09:57:02;100083.41;;;32.53;22.48
21863;BME280;11096;51.338;12.524;2023-04-21T09:59:35;100077.94;;;35.38;20.12
21863;BME280;11096;51.338;12.524;2023-04-21T10:02:04;100080.47;;;33.78;20.81
21863;BME280;11096;51.338;12.524;2023-04-21T10:04:30;100085.03;;;32.81;21.38
21863;BME280;11096;51.338;12.524;2023-04-21T10:06:58;100073.31;;;34.82;20.92
21863;BME280;11096;51.338;12.524;2023-04-21T10:09:29;100075.94;;;37.63;18.94
21863;BME280;11096;51.338;12.524;2023-04-21T10:11:55;100074.09;;;37.58;18.07
21863;BME280;11096;51.338;12.524;2023-04-21T10:14:24;100067.38;;;34.70;19.38
21863;BME280;11096;51.338;12.524;2023-04-21T10:16:57;100067.56;;;33.10;20.05
21863;BME280;11096;51.338;12.524;2023-04-21T10:19:27;100051.47;;;31.73;20.23
21863;BME280;11096;51.338;12.524;2023-04-21T10:21:56;100061.44;;;30.48;21.09
21863;BME280;11096;51.338;12.524;2023-04-21T10:24:28;100055.44;;;31.87;20.47
21863;BME280;11096;51.338;12.524;2023-04-21T10:26:56;100059.97;;;34.35;19.67
21863;BME280;11096;51.338;12.524;2023-04-21T10:29:31;100062.97;;;33.06;21.50
21863;BME280;11096;51.338;12.524;2023-04-21T10:31:57;100058.97;;;31.71;22.12
21863;BME280;11096;51.338;12.524;2023-04-21T10:39:44;100057.03;;;33.04;20.35
21863;BME280;11096;51.338;12.524;2023-04-21T10:44:40;100040.13;;;35.02;20.12
21863;BME280;11096;51.338;12.524;2023-04-21T10:47:06;100052.25;;;35.51;20.98
21863;BME280;11096;51.338;12.524;2023-04-21T10:49:37;100031.22;;;34.97;18.25
21863;BME280;11096;51.338;12.524;2023-04-21T10:52:04;100044.81;;;36.03;20.06
21863;BME280;11096;51.338;12.524;2023-04-21T10:54:42;100038.69;;;38.17;18.63
21863;BME280;11096;51.338;12.524;2023-04-21T10:57:15;100033.72;;;39.14;17.40
21863;BME280;11096;51.338;12.524;2023-04-21T10:59:41;100043.34;;;39.53;17.67
21863;BME280;11096;51.338;12.524;2023-04-21T11:02:10;100033.22;;;39.25;17.56
21863;BME280;11096;51.338;12.524;2023-04-21T11:04:36;100025.88;;;40.59;17.34
21863;BME280;11096;51.338;12.524;2023-04-21T11:07:07;100027.19;;;38.82;16.54
21863;BME280;11096;51.338;12.524;2023-04-21T11:09:33;100026.38;;;34.94;20.07
21863;BME280;11096;51.338;12.524;2023-04-21T11:12:03;100037.59;;;33.02;21.21
21863;BME280;11096;51.338;12.524;2023-04-21T11:14:29;100036.25;;;37.72;19.56
21863;BME280;11096;51.338;12.524;2023-04-21T11:16:55;100042.59;;;36.20;18.16
21863;BME280;11096;51.338;12.524;2023-04-21T11:19:20;100026.09;;;35.21;19.81
21863;BME280;11096;51.338;12.524;2023-04-21T11:21:48;100015.22;;;34.44;19.68
21863;BME280;11096;51.338;12.524;2023-04-21T11:24:14;100018.56;;;36.14;18.27
21863;BME280;11096;51.338;12.524;2023-04-21T11:26:40;100020.44;;;36.13;18.60
21863;BME280;11096;51.338;12.524;2023-04-21T11:29:08;100011.75;;;36.66;17.33
21863;BME280;11096;51.338;12.524;2023-04-21T11:31:35;100020.59;;;34.34;19.54
21863;BME280;11096;51.338;12.524;2023-04-21T11:34:02;100021.38;;;33.24;20.79
21863;BME280;11096;51.338;12.524;2023-04-21T11:36:41;100019.09;;;32.51;20.82
21863;BME280;11096;51.338;12.524;2023-04-21T11:39:11;100021.28;;;34.04;20.89
21863;BME280;11096;51.338;12.524;2023-04-21T11:41:39;100012.19;;;33.20;20.47
21863;BME280;11096;51.338;12.524;2023-04-21T11:44:05;99991.19;;;35.60;18.95
21863;BME280;11096;51.338;12.524;2023-04-21T11:46:31;100019.16;;;32.34;20.74
21863;BME280;11096;51.338;12.524;2023-04-21T11:49:02;100009.34;;;33.84;20.56
21863;BME280;11096;51.338;12.524;2023-04-21T11:51:42;100002.88;;;35.15;19.35
21863;BME280;11096;51.338;12.524;2023-04-21T11:54:10;99993.41;;;35.07;18.22
21863;BME280;11096;51.338;12.524;2023-04-21T11:56:36;100000.38;;;33.63;19.94
21863;BME280;11096;51.338;12.524;2023-04-21T11:59:10;99984.56;;;33.82;19.51
21863;BME280;11096;51.338;12.524;2023-04-21T12:01:45;99992.31;;;36.59;17.67
21863;BME280;11096;51.338;12.524;2023-04-21T12:04:19;99988.56;;;36.10;18.76
21863;BME280;11096;51.338;12.524;2023-04-21T12:06:46;99987.47;;;34.79;19.06
21863;BME280;11096;51.338;12.524;2023-04-21T12:09:19;99977.16;;;38.83;17.18
21863;BME280;11096;51.338;12.524;2023-04-21T12:11:49;99969.13;;;34.87;18.15
21863;BME280;11096;51.338;12.524;2023-04-21T12:14:17;99985.22;;;30.03;23.83
21863;BME280;11096;51.338;12.524;2023-04-21T12:16:43;99983.66;;;28.66;25.90
21863;BME280;11096;51.338;12.524;2023-04-21T12:19:08;99980.63;;;27.40;25.83
21863;BME280;11096;51.338;12.524;2023-04-21T12:21:36;99996.41;;;27.85;27.35
21863;BME280;11096;51.338;12.524;2023-04-21T12:24:03;99978.91;;;29.22;23.73
21863;BME280;11096;51.338;12.524;2023-04-21T12:26:29;99974.13;;;31.36;21.87
21863;BME280;11096;51.338;12.524;2023-04-21T12:28:54;99966.31;;;31.18;22.69
21863;BME280;11096;51.338;12.524;2023-04-21T12:31:20;99971.97;;;32.21;22.17
21863;BME280;11096;51.338;12.524;2023-04-21T12:33:45;99968.03;;;32.56;21.42
21863;BME280;11096;51.338;12.524;2023-04-21T12:36:11;99963.75;;;30.89;22.22
21863;BME280;11096;51.338;12.524;2023-04-21T12:38:36;99971.91;;;29.09;23.49
21863;BME280;11096;51.338;12.524;2023-04-21T12:41:02;99958.84;;;29.48;23.98
21863;BME280;11096;51.338;12.524;2023-04-21T12:43:28;99963.59;;;28.99;24.08
21863;BME280;11096;51.338;12.524;2023-04-21T12:45:53;99957.22;;;27.97;25.27